Time;durP1;ratioP1;P1;durP2;ratioP2;P2;SDS_P1;SDS_P2;PMS_P1;PMS_P2;Temp;Humidity;BMP_temperature;BMP_pressure;BME280_temperature;BME280_humidity;BME280_pressure;Samples;Min_cycle;Max_cycle;Signal;HPM_P1;HPM_P2
2022/11/09 00:01:01;;;;;;;5.35;1.50;;;;;;;12.70;80.76;100442.63;5047517;28;20042;-70
2022/11/09 00:03:28;;;;;;;2.75;1.35;;;;;;;12.68;80.81;100433.91;5050717;28;20042;-70
2022/11/09 00:05:58;;;;;;;8.40;1.60;;;;;;;12.65;80.74;100431.38;5054403;28;20050;-70
2022/11/09 00:08:25;;;;;;;3.08;1.30;;;;;;;12.62;80.85;100427.09;5041203;28;20053;-70
2022/11/09 00:10:52;;;;;;;3.30;1.48;;;;;;;12.62;81.18;100429.75;5048044;28;20077;-71
2022/11/09 00:13:20;;;;;;;5.00;1.70;;;;;;;12.64;81.22;100427.03;5056476;28;20088;-71
2022/11/09 00:15:51;;;;;;;3.25;1.60;;;;;;;12.66;81.44;100428.69;5050472;28;20049;-71
2022/11/09 00:18:18;;;;;;;7.03;1.60;;;;;;;12.66;81.36;100430.47;5051287;28;20886;-71
2022/11/09 00:20:46;;;;;;;4.18;1.50;;;;;;;12.64;81.25;100427.91;5062193;28;20041;-71
2022/11/09 00:23:15;;;;;;;5.22;1.77;;;;;;;12.66;81.45;100422.53;5051714;28;20141;-71
2022/11/09 00:25:43;;;;;;;3.47;1.33;;;;;;;12.68;81.41;100436.56;5051145;28;20569;-71
2022/11/09 00:28:10;;;;;;;5.43;1.40;;;;;;;12.68;81.46;100418.88;5049643;28;20049;-71
2022/11/09 00:30:38;;;;;;;4.82;1.60;;;;;;;12.72;81.33;100427.53;5038931;28;20108;-71
2022/11/09 00:33:06;;;;;;;7.20;1.80;;;;;;;12.72;81.33;100428.41;5038912;28;20427;-71
2022/11/09 00:35:37;;;;;;;4.30;1.60;;;;;;;12.74;81.41;100430.97;5058367;28;20049;-71
2022/11/09 00:38:04;;;;;;;3.53;1.67;;;;;;;12.78;81.58;100439.63;5054739;28;20041;-72
2022/11/09 00:40:31;;;;;;;3.50;1.52;;;;;;;12.83;81.41;100427.06;5045356;28;20132;-72
2022/11/09 00:42:58;;;;;;;4.72;1.60;;;;;;;12.88;81.56;100427.69;5051679;28;20091;-71
2022/11/09 00:45:25;;;;;;;5.30;1.50;;;;;;;12.92;81.67;100429.25;5040347;28;20038;-71
2022/11/09 00:47:54;;;;;;;4.88;1.58;;;;;;;12.96;81.54;100428.22;5055795;28;20072;-71
2022/11/09 00:50:21;;;;;;;4.35;1.48;;;;;;;12.99;81.69;100425.41;5049339;28;20567;-71
2022/11/09 00:52:48;;;;;;;4.57;1.48;;;;;;;13.05;81.42;100429.53;5032526;28;20092;-71
2022/11/09 00:55:15;;;;;;;4.85;1.55;;;;;;;13.09;81.36;100432.91;5043042;28;20048;-72
2022/11/09 00:57:42;;;;;;;3.00;1.60;;;;;;;13.12;81.38;100422.19;5048821;28;20069;-73
2022/11/09 01:00:12;;;;;;;4.47;1.58;;;;;;;13.17;81.32;100426.31;5034826;28;20042;-72
2022/11/09 01:02:42;;;;;;;5.68;1.63;;;;;;;13.21;81.21;100419.09;5036379;28;20058;-72
2022/11/09 01:05:09;;;;;;;7.50;1.58;;;;;;;13.23;81.03;100430.47;5041774;28;20045;-72
2022/11/09 01:07:37;;;;;;;5.53;1.60;;;;;;;13.26;80.96;100438.25;5049500;28;20041;-72
2022/11/09 01:10:06;;;;;;;5.50;1.75;;;;;;;13.27;80.82;100426.75;5048094;28;20530;-72
2022/11/09 01:12:33;;;;;;;3.08;1.40;;;;;;;13.27;80.49;100434.69;5036313;28;20052;-72
2022/11/09 01:15:00;;;;;;;5.40;1.70;;;;;;;13.24;80.39;100432.19;5034542;28;20041;-72
2022/11/09 01:17:28;;;;;;;6.03;1.63;;;;;;;13.17;80.09;100428.13;5046888;28;20050;-70
2022/11/09 01:19:55;;;;;;;5.32;1.40;;;;;;;13.09;80.26;100433.78;5060544;28;20095;-70
2022/11/09 01:22:22;;;;;;;4.22;1.45;;;;;;;13.03;80.26;100434.91;5044582;28;20046;-70
2022/11/09 01:24:49;;;;;;;5.28;1.67;;;;;;;12.96;80.43;100429.97;5040833;28;20049;-70
2022/11/09 01:27:16;;;;;;;6.55;2.20;;;;;;;12.92;80.58;100433.72;5040607;28;20096;-70
2022/11/09 01:29:43;;;;;;;3.13;1.50;;;;;;;12.87;80.61;100439.22;5036753;28;20069;-70
2022/11/09 01:32:10;;;;;;;6.45;1.60;;;;;;;12.82;80.87;100434.13;5064943;28;20037;-70
2022/11/09 01:34:39;;;;;;;7.38;1.73;;;;;;;12.78;80.90;100432.56;5051715;28;20049;-70
2022/11/09 01:37:06;;;;;;;5.18;1.52;;;;;;;12.76;81.17;100437.06;5033288;28;20128;-71
2022/11/09 01:39:33;;;;;;;2.78;1.20;;;;;;;12.71;81.17;100442.56;5051435;28;20116;-71
2022/11/09 01:42:02;;;;;;;3.58;1.55;;;;;;;12.69;81.36;100447.03;5034507;28;20045;-71
2022/11/09 01:44:29;;;;;;;4.82;1.70;;;;;;;12.65;81.42;100453.41;5036724;28;20041;-71
2022/11/09 01:47:18;;;;;;;4.10;1.77;;;;;;;12.64;81.64;100453.47;5040843;28;20046;-71
2022/11/09 01:49:56;;;;;;;3.80;1.50;;;;;;;12.58;81.69;100441.38;5043935;28;20187;-71
2022/11/09 01:52:35;;;;;;;4.03;1.40;;;;;;;12.57;81.82;100445.81;5045264;28;20042;-71
2022/11/09 01:55:15;;;;;;;6.75;1.60;;;;;;;12.52;81.65;100433.75;5047518;28;20030;-71
2022/11/09 01:57:52;;;;;;;3.45;1.40;;;;;;;12.48;81.81;100437.44;5051720;28;20058;-71
2022/11/09 02:00:19;;;;;;;7.03;1.85;;;;;;;12.44;81.99;100431.44;5047811;28;20049;-70
2022/11/09 02:02:57;;;;;;;3.72;1.58;;;;;;;12.45;81.99;100438.44;5033354;28;20046;-70
2022/11/09 02:05:29;;;;;;;4.70;1.50;;;;;;;12.43;82.30;100440.28;5049789;28;20053;-71
2022/11/09 02:08:01;;;;;;;4.10;1.50;;;;;;;12.41;82.13;100432.44;5060458;28;20049;-71
2022/11/09 02:10:44;;;;;;;3.90;1.50;;;;;;;12.41;82.23;100448.28;5031136;28;21021;-71
2022/11/09 02:13:16;;;;;;;3.63;1.52;;;;;;;12.42;82.11;100442.09;5042221;28;20038;-71
2022/11/09 02:15:44;;;;;;;6.20;1.60;;;;;;;12.43;82.39;100445.56;5044138;28;20136;-70
2022/11/09 02:18:13;;;;;;;4.97;1.67;;;;;;;12.42;82.37;100442.09;5041752;28;20105;-71
2022/11/09 02:20:51;;;;;;;5.55;1.20;;;;;;;12.42;82.16;100438.56;5066759;28;20049;-71
2022/11/09 02:23:24;;;;;;;5.35;1.38;;;;;;;12.40;82.13;100427.22;5040349;28;20077;-72
2022/11/09 02:25:59;;;;;;;9.07;1.50;;;;;;;12.38;81.84;100434.34;5043715;28;20053;-71
2022/11/09 02:28:27;;;;;;;4.97;1.30;;;;;;;12.36;82.05;100450.25;5032406;28;20050;-72
2022/11/09 02:30:57;;;;;;;5.20;1.30;;;;;;;12.33;82.09;100446.91;5047410;28;20169;-71
2022/11/09 02:33:24;;;;;;;7.25;1.50;;;;;;;12.31;81.97;100449.63;5031680;28;20053;-71
2022/11/09 02:35:53;;;;;;;5.80;1.33;;;;;;;12.31;82.12;100446.97;5042580;28;20042;-71
2022/11/09 02:38:21;;;;;;;4.93;1.50;;;;;;;12.29;82.12;100446.19;5049571;28;20045;-71
2022/11/09 02:40:51;;;;;;;5.10;1.38;;;;;;;12.27;82.06;100440.09;5058039;28;20475;-70
2022/11/09 02:43:19;;;;;;;2.75;1.33;;;;;;;12.27;82.44;100437.47;5051672;28;20056;-70
2022/11/09 02:45:47;;;;;;;4.97;1.45;;;;;;;12.30;82.60;100432.03;5062417;28;20052;-71
2022/11/09 02:48:14;;;;;;;7.07;1.63;;;;;;;12.35;82.46;100447.69;5043594;28;20125;-70
2022/11/09 02:50:41;;;;;;;6.07;1.33;;;;;;;12.39;82.41;100447.50;5072317;28;20052;-71
2022/11/09 02:53:09;;;;;;;6.80;1.40;;;;;;;12.46;82.26;100455.19;5052468;28;20042;-71
2022/11/09 02:55:40;;;;;;;3.00;1.20;;;;;;;12.49;82.12;100450.59;5049124;28;20112;-71
2022/11/09 02:58:08;;;;;;;5.28;1.20;;;;;;;12.53;82.13;100454.81;5057312;28;20049;-70
2022/11/09 03:00:36;;;;;;;4.85;1.40;;;;;;;12.57;82.00;100461.69;5033695;28;20057;-71
2022/11/09 03:03:04;;;;;;;5.63;1.20;;;;;;;12.63;81.68;100459.69;5051583;28;20057;-70
2022/11/09 03:05:31;;;;;;;4.35;1.10;;;;;;;12.67;81.53;100451.53;5053077;28;20057;-70
2022/11/09 03:08:01;;;;;;;4.55;1.20;;;;;;;12.69;81.39;100451.50;5051103;28;20041;-70
2022/11/09 03:10:31;;;;;;;6.20;1.20;;;;;;;12.69;81.24;100432.97;5038525;28;20101;-71
2022/11/09 03:12:59;;;;;;;7.78;1.50;;;;;;;12.74;81.14;100436.25;5043196;28;20030;-71
2022/11/09 03:15:26;;;;;;;4.53;1.40;;;;;;;12.77;80.72;100444.06;5048303;28;20038;-71
2022/11/09 03:17:55;;;;;;;5.00;1.30;;;;;;;12.79;80.63;100442.22;5039590;28;20054;-71
2022/11/09 03:20:23;;;;;;;4.50;1.13;;;;;;;12.81;80.52;100437.72;5057070;28;20081;-71
2022/11/09 03:22:50;;;;;;;9.65;1.40;;;;;;;12.82;80.59;100430.63;5051013;28;20037;-71
2022/11/09 03:25:17;;;;;;;7.22;1.40;;;;;;;12.87;80.34;100428.63;5049953;28;20045;-71
2022/11/09 03:27:45;;;;;;;7.95;1.45;;;;;;;12.88;80.03;100431.19;5062725;28;20069;-71
2022/11/09 03:30:12;;;;;;;4.70;1.15;;;;;;;12.91;79.85;100438.13;5047175;28;20038;-71
2022/11/09 03:32:40;;;;;;;6.05;1.40;;;;;;;12.93;79.80;100449.50;5068961;28;20095;-72
2022/11/09 03:35:08;;;;;;;7.57;1.10;;;;;;;12.97;79.62;100444.94;5062889;28;20054;-71
2022/11/09 03:37:36;;;;;;;9.80;1.58;;;;;;;12.98;79.51;100450.13;5057270;28;20049;-71
2022/11/09 03:40:04;;;;;;;4.72;1.10;;;;;;;13.00;79.59;100464.16;5032504;28;22453;-71
2022/11/09 03:42:31;;;;;;;7.53;1.40;;;;;;;13.02;79.55;100472.03;5047518;28;20042;-71
2022/11/09 03:44:58;;;;;;;5.25;1.13;;;;;;;13.02;79.64;100485.28;5055063;28;20038;-71
2022/11/09 03:47:25;;;;;;;4.40;1.30;;;;;;;13.03;79.53;100490.47;5036292;28;20045;-71
2022/11/09 03:49:52;;;;;;;5.40;1.33;;;;;;;13.01;79.75;100492.34;5062287;28;20132;-73
2022/11/09 03:52:19;;;;;;;8.77;1.77;;;;;;;13.00;79.72;100495.06;5044929;28;20038;-72
2022/11/09 03:54:46;;;;;;;9.23;1.20;;;;;;;13.00;79.89;100508.28;5050080;28;20542;-72
2022/11/09 03:57:14;;;;;;;7.10;1.27;;;;;;;13.01;79.71;100499.44;5036588;28;20041;-72
2022/11/09 03:59:41;;;;;;;8.35;1.35;;;;;;;12.98;79.72;100505.69;5044282;28;20046;-71
2022/11/09 04:02:09;;;;;;;4.70;1.00;;;;;;;12.98;79.69;100508.34;5046098;28;20056;-72
2022/11/09 04:04:36;;;;;;;8.35;1.25;;;;;;;12.98;79.78;100508.34;5059259;28;20134;-70
2022/11/09 04:07:03;;;;;;;5.10;1.30;;;;;;;12.98;79.69;100513.63;5053148;28;20484;-70
2022/11/09 04:09:30;;;;;;;4.60;1.40;;;;;;;12.96;79.79;100512.00;5049816;28;20061;-71
2022/11/09 04:11:57;;;;;;;7.43;1.20;;;;;;;12.95;79.84;100502.34;5055099;28;20050;-72
2022/11/09 04:14:24;;;;;;;4.38;1.20;;;;;;;12.92;79.80;100516.56;5041876;28;20508;-72
2022/11/09 04:16:51;;;;;;;5.93;1.15;;;;;;;12.89;80.00;100512.28;5050615;28;20092;-73
2022/11/09 04:19:18;;;;;;;6.55;1.42;;;;;;;12.89;79.95;100511.41;5035216;28;20046;-73
2022/11/09 04:21:45;;;;;;;5.68;1.30;;;;;;;12.88;80.00;100507.91;5058714;28;20052;-73
2022/11/09 04:24:12;;;;;;;4.00;1.10;;;;;;;12.88;80.10;100514.97;5050976;28;20041;-74
2022/11/09 04:26:40;;;;;;;5.63;1.20;;;;;;;12.88;80.14;100514.97;5049630;28;20519;-73
2022/11/09 04:29:09;;;;;;;6.85;1.38;;;;;;;12.86;80.09;100522.16;5047175;28;20490;-73
2022/11/09 04:31:36;;;;;;;3.88;1.10;;;;;;;12.87;80.07;100521.22;5037087;28;20066;-73
2022/11/09 04:34:03;;;;;;;6.55;1.33;;;;;;;12.86;80.17;100517.72;5048284;28;20132;-72
2022/11/09 04:36:30;;;;;;;6.38;1.30;;;;;;;12.85;80.23;100517.78;5057361;28;20033;-73
2022/11/09 04:38:57;;;;;;;4.95;1.00;;;;;;;12.85;80.27;100518.63;5049893;28;20528;-73
2022/11/09 04:41:27;;;;;;;7.47;1.60;;;;;;;12.85;80.33;100523.06;5041144;28;20050;-72
2022/11/09 04:43:54;;;;;;;7.65;1.60;;;;;;;12.83;80.13;100525.78;5036226;28;20813;-72
2022/11/09 04:46:21;;;;;;;6.20;1.48;;;;;;;12.83;79.95;100530.22;5047033;28;20523;-73
2022/11/09 04:48:48;;;;;;;9.02;1.30;;;;;;;12.76;79.81;100534.91;5053013;28;20144;-73
2022/11/09 04:51:15;;;;;;;9.05;1.58;;;;;;;12.67;79.81;100536.16;5063778;28;20045;-73
2022/11/09 04:53:44;;;;;;;5.18;2.13;;;;;;;12.60;80.08;100533.88;5055420;28;20041;-72
2022/11/09 04:56:11;;;;;;;10.85;1.60;;;;;;;12.50;80.18;100530.75;5040704;28;20075;-72
2022/11/09 04:58:38;;;;;;;7.80;1.20;;;;;;;12.45;80.43;100528.31;5035701;28;20565;-72
2022/11/09 05:01:11;;;;;;;9.68;1.48;;;;;;;12.37;80.72;100531.28;5038311;28;20048;-72
2022/11/09 05:03:39;;;;;;;4.15;1.55;;;;;;;12.35;81.04;100537.56;5038833;28;20048;-70
2022/11/09 05:08:54;;;;;;;11.73;1.60;;;;;;;12.22;81.34;100534.59;5042681;28;20058;-72
2022/11/09 05:11:22;;;;;;;10.23;1.48;;;;;;;12.22;81.55;100539.88;5043928;28;20040;-72
2022/11/09 05:13:50;;;;;;;6.28;1.40;;;;;;;12.21;81.70;100536.34;5036260;28;20037;-71
2022/11/09 05:16:19;;;;;;;8.73;1.80;;;;;;;12.19;81.79;100542.63;5046343;28;20046;-71
2022/11/09 05:18:46;;;;;;;9.10;1.70;;;;;;;12.15;81.85;100533.16;5049617;28;20853;-72
2022/11/09 05:21:13;;;;;;;6.45;1.35;;;;;;;12.11;81.90;100532.38;5052394;28;20120;-71
2022/11/09 05:23:59;;;;;;;7.13;1.70;;;;;;;12.06;82.04;100534.38;5044747;28;20045;-71
2022/11/09 05:26:36;;;;;;;9.52;1.48;;;;;;;12.01;82.08;100531.91;5050564;28;20068;-71
2022/11/09 05:29:10;;;;;;;11.02;1.58;;;;;;;11.96;82.40;100532.09;5036721;28;20492;-72
2022/11/09 05:31:38;;;;;;;9.57;1.60;;;;;;;11.90;82.38;100526.19;5053658;28;20530;-71
2022/11/09 05:34:09;;;;;;;8.65;1.55;;;;;;;11.85;82.64;100528.16;5045477;28;20041;-71
2022/11/09 05:36:36;;;;;;;6.20;1.70;;;;;;;11.79;82.54;100524.00;5047039;28;20094;-71
2022/11/09 05:39:03;;;;;;;6.88;1.40;;;;;;;11.77;82.97;100531.09;5044250;28;20049;-70
2022/11/09 05:41:30;;;;;;;12.50;1.55;;;;;;;11.75;83.17;100531.16;5048300;28;20049;-71
2022/11/09 05:44:02;;;;;;;8.65;1.40;;;;;;;11.71;83.30;100529.56;5051046;28;20040;-70
2022/11/09 05:46:30;;;;;;;8.70;1.70;;;;;;;11.71;83.58;100532.22;5046535;28;20048;-71
2022/11/09 05:48:57;;;;;;;6.72;1.40;;;;;;;11.72;84.19;100527.78;5042956;28;20053;-70
2022/11/09 05:51:24;;;;;;;8.18;1.50;;;;;;;11.76;84.39;100532.03;5047544;28;20045;-71
2022/11/09 05:53:51;;;;;;;5.80;1.52;;;;;;;11.80;84.19;100531.84;5047513;28;20041;-70
2022/11/09 05:56:18;;;;;;;13.43;1.70;;;;;;;11.83;84.10;100530.00;5047618;28;20045;-71
2022/11/09 05:58:45;;;;;;;8.52;1.60;;;;;;;11.83;84.00;100541.41;5048106;28;20049;-70
2022/11/09 06:01:17;;;;;;;9.38;1.90;;;;;;;11.84;84.41;100537.00;5045727;28;20038;-70
2022/11/09 06:03:44;;;;;;;8.10;1.60;;;;;;;11.86;84.32;100538.66;5048920;28;20056;-71
2022/11/09 06:06:15;;;;;;;12.85;2.08;;;;;;;11.90;84.03;100539.38;5047796;28;20040;-70
2022/11/09 06:08:42;;;;;;;13.80;1.83;;;;;;;11.91;84.03;100536.69;5045303;28;20141;-70
2022/11/09 06:11:12;;;;;;;11.50;1.90;;;;;;;11.91;84.02;100539.31;5043527;28;20092;-70
2022/11/09 06:13:49;;;;;;;17.25;1.83;;;;;;;11.90;83.87;100539.38;5049815;28;20121;-71
2022/11/09 06:16:18;;;;;;;13.25;1.73;;;;;;;11.89;83.98;100549.13;5049278;28;20038;-71
2022/11/09 06:18:45;;;;;;;8.15;1.60;;;;;;;11.88;83.85;100550.03;5051289;28;20045;-71
2022/11/09 06:21:12;;;;;;;8.98;1.77;;;;;;;11.88;83.78;100557.06;5048716;28;20048;-71
2022/11/09 06:23:39;;;;;;;10.98;2.20;;;;;;;11.85;83.61;100541.38;5047716;28;20488;-71
2022/11/09 06:26:10;;;;;;;8.73;1.45;;;;;;;11.83;83.55;100554.63;5050352;28;20053;-71
2022/11/09 06:28:39;;;;;;;9.80;1.52;;;;;;;11.80;83.67;100552.97;5048266;28;20041;-71
2022/11/09 06:31:11;;;;;;;12.30;1.90;;;;;;;11.77;83.58;100555.72;5047552;28;20041;-71
2022/11/09 06:33:40;;;;;;;7.90;1.52;;;;;;;11.73;83.52;100561.19;5049366;28;20064;-71
2022/11/09 06:36:10;;;;;;;9.93;2.10;;;;;;;11.67;83.30;100562.28;5054449;28;20046;-71
2022/11/09 06:38:37;;;;;;;9.18;1.70;;;;;;;11.64;83.68;100567.72;5050805;28;20044;-71
2022/11/09 06:41:05;;;;;;;12.77;1.83;;;;;;;11.61;83.72;100562.53;5048764;28;20037;-71
2022/11/09 06:43:32;;;;;;;11.13;1.70;;;;;;;11.63;84.20;100568.63;5049360;28;20169;-71
2022/11/09 06:46:04;;;;;;;15.35;2.13;;;;;;;11.70;84.54;100577.19;5048942;28;20053;-71
2022/11/09 06:48:31;;;;;;;9.63;1.70;;;;;;;11.76;84.58;100571.63;5048308;28;20049;-71
2022/11/09 06:51:01;;;;;;;8.68;1.60;;;;;;;11.79;84.28;100572.38;5047240;28;20034;-71
2022/11/09 06:53:29;;;;;;;7.60;1.55;;;;;;;11.75;84.15;100575.19;5049228;28;20065;-71
2022/11/09 06:56:02;;;;;;;9.50;1.50;;;;;;;11.68;83.57;100571.09;5048993;28;20784;-70
2022/11/09 06:58:30;;;;;;;12.35;1.77;;;;;;;11.62;83.81;100575.69;5046389;28;20097;-71
2022/11/09 07:00:58;;;;;;;13.55;2.00;;;;;;;11.56;83.92;100578.56;5046020;28;20041;-71
2022/11/09 07:03:25;;;;;;;7.45;1.65;;;;;;;11.50;83.92;100581.41;5048288;28;20046;-71
2022/11/09 07:05:52;;;;;;;9.80;1.60;;;;;;;11.44;84.02;100590.47;5055488;28;20187;-71
2022/11/09 07:08:19;;;;;;;10.38;1.65;;;;;;;11.42;84.18;100592.28;5042825;28;20452;-71
2022/11/09 07:10:46;;;;;;;9.63;1.38;;;;;;;11.39;84.38;100591.56;5037308;28;20057;-71
2022/11/09 07:13:13;;;;;;;10.23;1.58;;;;;;;11.36;84.54;100594.28;5070308;28;20037;-71
2022/11/09 07:15:40;;;;;;;9.50;2.08;;;;;;;11.33;84.51;100590.84;5044907;28;20139;-71
2022/11/09 07:18:12;;;;;;;8.95;1.80;;;;;;;11.32;84.83;100594.41;5038600;28;20053;-71
2022/11/09 07:20:39;;;;;;;14.88;1.75;;;;;;;11.30;84.78;100598.88;5036013;28;20034;-71
2022/11/09 07:23:06;;;;;;;12.48;1.83;;;;;;;11.31;84.84;100594.47;5049250;28;20045;-71
2022/11/09 07:25:33;;;;;;;10.32;1.75;;;;;;;11.32;85.04;100596.19;5064145;28;20838;-71
2022/11/09 07:28:07;;;;;;;7.53;1.70;;;;;;;11.37;84.95;100602.16;5070011;28;20502;-71
2022/11/09 07:30:35;;;;;;;9.40;1.70;;;;;;;11.41;85.17;100603.75;5060820;28;20045;-71
2022/11/09 07:33:12;;;;;;;8.32;1.45;;;;;;;11.47;84.99;100595.59;5052899;28;20052;-71
2022/11/09 07:35:41;;;;;;;8.55;1.70;;;;;;;11.55;85.00;100607.69;5052826;28;20095;-71
2022/11/09 07:38:09;;;;;;;9.65;1.98;;;;;;;11.59;85.03;100606.63;5032970;28;20038;-71
2022/11/09 07:40:39;;;;;;;9.38;2.00;;;;;;;11.64;84.85;100608.16;5032808;28;20046;-71
2022/11/09 07:43:11;;;;;;;7.93;1.77;;;;;;;11.72;85.08;100609.63;5032965;28;20054;-71
2022/11/09 07:45:39;;;;;;;15.57;2.00;;;;;;;11.75;84.81;100609.53;5033230;28;20125;-71
2022/11/09 07:48:10;;;;;;;7.55;1.40;;;;;;;11.78;84.71;100622.63;5032994;28;20049;-71
2022/11/09 07:50:39;;;;;;;9.43;1.85;;;;;;;11.82;84.59;100618.94;5050655;28;20045;-71
2022/11/09 07:53:09;;;;;;;8.15;2.17;;;;;;;11.85;84.38;100616.19;5052615;28;20041;-71
2022/11/09 07:55:36;;;;;;;13.50;2.03;;;;;;;11.91;84.32;100617.72;5052911;28;20049;-71
2022/11/09 07:58:11;;;;;;;7.93;1.70;;;;;;;11.94;84.20;100623.72;5052955;28;20064;-71
2022/11/09 08:00:41;;;;;;;9.32;1.63;;;;;;;11.95;84.29;100622.81;5055124;28;20041;-71
2022/11/09 08:03:11;;;;;;;12.93;1.52;;;;;;;11.98;84.23;100627.13;5070910;28;20048;-71
2022/11/09 08:05:39;;;;;;;14.55;1.63;;;;;;;11.99;84.18;100622.75;5053529;28;20852;-71
2022/11/09 08:08:10;;;;;;;12.88;1.70;;;;;;;12.02;83.98;100628.75;5056827;28;20049;-71
2022/11/09 08:10:38;;;;;;;6.65;1.70;;;;;;;12.07;84.02;100624.13;5058555;28;20564;-71
2022/11/09 08:13:10;;;;;;;8.70;1.52;;;;;;;12.13;83.79;100620.38;5045470;28;20041;-71
2022/11/09 08:15:39;;;;;;;11.57;1.70;;;;;;;12.19;83.76;100627.22;5053090;28;20054;-72
2022/11/09 08:18:16;;;;;;;8.15;1.52;;;;;;;12.20;83.78;100626.28;5059083;28;20346;-71
2022/11/09 08:20:43;;;;;;;7.38;1.80;;;;;;;12.27;83.44;100633.91;5051507;28;20063;-71
2022/11/09 08:23:13;;;;;;;8.10;1.40;;;;;;;12.31;83.54;100634.66;5054570;28;20496;-71
2022/11/09 08:25:40;;;;;;;9.60;1.90;;;;;;;12.36;83.24;100637.09;5067406;28;20040;-71
2022/11/09 08:28:08;;;;;;;10.70;1.80;;;;;;;12.39;83.13;100637.81;5072797;28;20499;-71
2022/11/09 08:30:42;;;;;;;12.55;1.65;;;;;;;12.42;83.17;100652.69;5072915;28;20033;-71
2022/11/09 08:33:11;;;;;;;11.55;2.10;;;;;;;12.43;82.92;100649.13;5052715;28;20109;-71
2022/11/09 08:35:39;;;;;;;6.60;1.35;;;;;;;12.46;82.76;100656.94;5051813;28;20057;-71
2022/11/09 08:38:06;;;;;;;7.00;1.60;;;;;;;12.49;82.58;100659.47;5050491;28;20960;-71
2022/11/09 08:40:38;;;;;;;18.65;2.67;;;;;;;12.52;82.48;100658.47;5051243;28;20053;-71
2022/11/09 08:43:07;;;;;;;11.35;1.60;;;;;;;12.53;82.52;100649.63;5052199;28;20103;-71
2022/11/09 08:45:37;;;;;;;9.32;1.50;;;;;;;12.57;82.24;100654.72;5051328;28;20112;-71
2022/11/09 08:48:09;;;;;;;11.75;1.70;;;;;;;12.61;82.11;100655.44;5044951;28;20957;-71
2022/11/09 08:50:36;;;;;;;14.82;1.90;;;;;;;12.66;81.82;100657.91;5052318;28;20423;-71
2022/11/09 08:53:05;;;;;;;6.53;1.33;;;;;;;12.70;81.87;100655.06;5051932;28;20091;-71
2022/11/09 08:55:32;;;;;;;4.13;1.42;;;;;;;12.74;81.83;100655.78;5052036;28;20401;-71
2022/11/09 08:58:02;;;;;;;8.98;1.90;;;;;;;12.79;81.84;100663.53;5052032;28;20399;-71
2022/11/09 09:00:30;;;;;;;10.98;1.75;;;;;;;12.83;81.72;100663.31;5051218;28;20100;-71
2022/11/09 09:03:03;;;;;;;16.70;1.90;;;;;;;12.94;81.45;100660.25;5050582;28;20486;-71
2022/11/09 09:05:33;;;;;;;7.93;1.48;;;;;;;13.01;80.93;100647.59;5035667;28;20159;-71
2022/11/09 09:08:02;;;;;;;9.82;1.70;;;;;;;13.05;80.70;100652.69;5059170;28;20045;-71
2022/11/09 09:10:34;;;;;;;13.07;1.75;;;;;;;13.20;80.76;100663.53;5052578;28;20880;-71
2022/11/09 09:13:03;;;;;;;18.55;1.75;;;;;;;13.36;80.27;100655.75;5056697;28;20051;-71
2022/11/09 09:15:32;;;;;;;8.05;2.08;;;;;;;13.51;79.43;100655.13;5061724;28;20044;-71
2022/11/09 09:18:01;;;;;;;8.77;1.70;;;;;;;13.61;78.78;100660.00;5057573;28;20082;-71
2022/11/09 09:20:29;;;;;;;14.82;1.92;;;;;;;13.71;78.57;100663.06;5061282;28;20041;-72
2022/11/09 09:23:00;;;;;;;9.93;1.70;;;;;;;13.81;78.29;100664.34;5068985;28;20037;-71
2022/11/09 09:25:27;;;;;;;11.23;1.90;;;;;;;13.89;77.58;100664.00;5067623;28;20429;-71
2022/11/09 09:27:55;;;;;;;13.50;2.08;;;;;;;13.92;77.05;100650.63;5059242;28;20043;-71
2022/11/09 09:30:22;;;;;;;13.18;1.77;;;;;;;13.91;77.16;100662.13;5069557;28;20148;-72
2022/11/09 09:32:49;;;;;;;16.38;1.88;;;;;;;13.84;76.97;100669.50;5050337;28;20045;-71
2022/11/09 09:35:16;;;;;;;13.95;1.65;;;;;;;13.89;76.69;100680.75;5048349;28;20048;-72
2022/11/09 09:37:43;;;;;;;13.13;1.75;;;;;;;13.89;76.69;100675.44;5049858;28;20038;-71
2022/11/09 09:40:28;;;;;;;8.60;1.77;;;;;;;13.93;76.56;100668.22;5050993;28;20050;-71
2022/11/09 09:42:56;;;;;;;10.02;1.65;;;;;;;13.97;76.68;100675.09;5053632;28;20046;-70
2022/11/09 09:45:33;;;;;;;11.48;2.00;;;;;;;14.02;76.19;100666.91;5060643;28;20048;-70
2022/11/09 09:48:26;;;;;;;8.63;1.50;;;;;;;14.09;75.78;100678.97;5056898;28;20053;-71
2022/11/09 09:51:09;;;;;;;16.45;3.17;;;;;;;14.14;75.78;100683.09;5066873;28;20037;-71
2022/11/09 09:53:48;;;;;;;12.13;1.92;;;;;;;14.18;74.60;100691.78;5059341;28;20033;-70
2022/11/09 09:56:25;;;;;;;20.25;2.22;;;;;;;14.16;74.71;100696.28;5061248;28;20041;-70
2022/11/09 09:59:00;;;;;;;10.45;1.80;;;;;;;14.12;74.75;100694.72;5058187;28;20471;-70
2022/11/09 10:01:37;;;;;;;12.30;1.95;;;;;;;14.09;74.29;100692.22;5050214;28;20511;-70
2022/11/09 10:04:40;;;;;;;9.18;1.85;;;;;;;14.08;74.73;100706.41;5052339;28;20103;-71
2022/11/09 10:07:22;;;;;;;18.85;3.05;;;;;;;14.13;74.42;100702.59;5057924;28;20478;-70
2022/11/09 10:10:11;;;;;;;11.02;1.40;;;;;;;14.15;74.38;100707.81;5049782;28;20057;-70
2022/11/09 10:13:24;;;;;;;17.17;1.73;;;;;;;14.29;73.70;100707.16;5068060;28;20056;-70
2022/11/09 10:15:57;;;;;;;7.80;1.42;;;;;;;14.35;73.85;100698.91;5031737;28;20538;-70
2022/11/09 10:19:07;;;;;;;14.38;2.72;;;;;;;14.39;73.32;100696.97;5037196;28;20048;-71
2022/11/09 10:22:09;;;;;;;10.20;1.88;;;;;;;14.41;73.08;100706.56;5066751;28;20969;-71
2022/11/09 10:25:05;;;;;;;12.32;2.20;;;;;;;14.44;73.01;100705.56;5060025;28;20486;-71
2022/11/09 10:28:06;;;;;;;13.00;1.80;;;;;;;14.50;73.11;100707.06;5053315;28;20084;-71
2022/11/09 10:30:39;;;;;;;14.05;1.90;;;;;;;14.63;73.19;100702.00;5031851;28;20080;-71
2022/11/09 10:33:20;;;;;;;6.57;1.80;;;;;;;14.74;72.83;100700.59;5031974;28;20042;-71
2022/11/09 10:36:23;;;;;;;10.90;1.75;;;;;;;14.83;72.03;100701.91;5038312;28;20072;-71
2022/11/09 10:38:58;;;;;;;15.98;1.75;;;;;;;14.94;70.99;100703.16;5040262;28;20523;-71
2022/11/09 10:41:47;;;;;;;12.10;1.60;;;;;;;14.89;70.98;100700.72;5052509;28;20057;-71
2022/11/09 10:44:32;;;;;;;15.60;1.73;;;;;;;14.97;70.46;100705.66;5051779;28;20104;-71
2022/11/09 10:47:19;;;;;;;16.05;2.33;;;;;;;15.01;70.71;100699.22;5051222;28;20119;-71
2022/11/09 10:50:21;;;;;;;24.95;2.42;;;;;;;14.97;70.90;100710.97;5056966;28;20965;-71
2022/11/09 10:53:24;;;;;;;14.95;1.88;;;;;;;14.99;70.77;100714.41;5067100;28;20552;-71
2022/11/09 10:56:17;;;;;;;13.70;1.55;;;;;;;15.10;70.16;100705.88;5048487;28;20224;-71
2022/11/09 11:00:05;;;;;;;11.52;1.73;;;;;;;15.33;69.46;100699.38;5058788;28;20114;-71
2022/11/09 11:02:52;;;;;;;9.95;1.33;;;;;;;15.35;69.71;100702.81;5051143;28;20147;-71
2022/11/09 11:05:38;;;;;;;7.10;1.27;;;;;;;15.56;69.19;100705.25;5054243;28;20535;-71
2022/11/09 11:08:41;;;;;;;16.90;2.08;;;;;;;15.84;68.27;100708.19;5063548;28;20060;-71
2022/11/09 11:11:30;;;;;;;15.98;1.85;;;;;;;16.10;67.44;100713.00;5053239;28;20068;-71
2022/11/09 11:14:35;;;;;;;14.90;2.35;;;;;;;16.14;67.75;100714.56;5055539;28;20561;-71
2022/11/09 11:17:25;;;;;;;16.48;1.80;;;;;;;16.23;67.18;100719.34;5067718;28;20052;-71
2022/11/09 11:20:34;;;;;;;9.57;1.42;;;;;;;16.25;67.41;100720.13;5065920;28;20136;-72
2022/11/09 11:23:25;;;;;;;12.13;1.67;;;;;;;16.26;67.19;100728.97;5062886;28;20056;-71
2022/11/09 11:26:39;;;;;;;12.40;1.45;;;;;;;16.12;65.44;100722.63;5062420;28;20041;-71
2022/11/09 11:29:47;;;;;;;17.50;1.35;;;;;;;16.01;63.96;100729.47;5041572;28;20076;-71
2022/11/09 11:32:33;;;;;;;9.93;1.30;;;;;;;15.97;64.24;100720.81;5070761;28;20045;-73
2022/11/09 11:35:55;;;;;;;11.45;1.52;;;;;;;15.81;64.42;100737.56;5069554;28;20041;-71
2022/11/09 11:38:56;;;;;;;13.02;1.65;;;;;;;15.61;64.14;100727.16;5059056;28;20188;-71
2022/11/09 11:42:00;;;;;;;15.90;1.67;;;;;;;15.51;64.82;100727.63;5052530;28;20042;-70
2022/11/09 11:45:31;;;;;;;20.75;2.22;;;;;;;15.57;65.00;100729.09;5063472;28;20066;-72
2022/11/09 11:48:44;;;;;;;14.90;1.83;;;;;;;15.56;64.56;100739.81;5050161;28;20052;-72
2022/11/09 11:52:03;;;;;;;14.32;1.52;;;;;;;15.50;64.00;100735.66;5070145;28;20075;-73